createdAt,value
2023-04-02T00:00:23.734Z,82.91
2023-04-02T00:03:12.781Z,82.97
2023-04-02T00:05:55.887Z,83.33
2023-04-02T00:08:31.076Z,82.80
2023-04-02T00:11:02.999Z,83.38
2023-04-02T00:13:34.102Z,82.52
2023-04-02T00:16:07.740Z,82.34
2023-04-02T00:18:42.542Z,82.55
2023-04-02T00:21:20.601Z,82.50
2023-04-02T00:23:50.614Z,82.35
2023-04-02T00:26:26.720Z,83.04
2023-04-02T00:28:55.749Z,82.55
2023-04-02T00:31:27.260Z,82.81
2023-04-02T00:33:57.048Z,82.62
2023-04-02T00:36:30.518Z,83.18
2023-04-02T00:39:01.211Z,83.77
2023-04-02T00:41:36.218Z,85.54
2023-04-02T00:44:06.056Z,85.01
2023-04-02T00:46:49.576Z,84.63
2023-04-02T00:49:24.861Z,85.26
2023-04-02T00:51:57.920Z,85.96
2023-04-02T00:54:32.573Z,85.16
2023-04-02T00:57:02.907Z,84.83
2023-04-02T00:59:35.701Z,85.23
2023-04-02T01:02:26.509Z,84.98
2023-04-02T01:04:57.734Z,84.84
2023-04-02T01:07:52.648Z,84.60
2023-04-02T01:10:45.993Z,83.62
2023-04-02T01:13:26.628Z,82.87
2023-04-02T01:16:00.679Z,82.56
2023-04-02T01:18:46.445Z,82.61
2023-04-02T01:21:37.012Z,82.52
2023-04-02T01:24:08.761Z,83.79
2023-04-02T01:26:55.676Z,83.95
2023-04-02T01:29:29.978Z,83.54
2023-04-02T01:32:02.583Z,84.23
2023-04-02T01:34:32.301Z,82.91
2023-04-02T01:37:15.029Z,83.56
2023-04-02T01:40:01.189Z,83.41
2023-04-02T01:42:35.669Z,83.17
2023-04-02T01:45:09.253Z,83.28
2023-04-02T01:47:39.927Z,82.84
2023-04-02T01:50:23.559Z,82.17
2023-04-02T01:52:56.181Z,82.30
2023-04-02T01:55:33.797Z,81.60
2023-04-02T01:58:04.815Z,82.04
2023-04-02T02:00:38.406Z,82.01
2023-04-02T02:03:08.806Z,81.89
2023-04-02T02:05:39.218Z,81.79
2023-04-02T02:08:17.187Z,81.69
2023-04-02T02:10:46.423Z,81.01
2023-04-02T02:13:16.832Z,81.87
2023-04-02T02:15:47.809Z,81.30
2023-04-02T02:18:23.495Z,81.74
2023-04-02T02:20:53.394Z,81.20
2023-04-02T02:23:23.367Z,81.30
2023-04-02T02:25:52.573Z,81.11
2023-04-02T02:28:27.308Z,80.91
2023-04-02T02:31:01.653Z,81.27
2023-04-02T02:33:38.195Z,81.58
2023-04-02T02:36:15.739Z,82.09
2023-04-02T02:38:54.252Z,83.27
2023-04-02T02:41:38.799Z,82.86
2023-04-02T02:44:16.504Z,83.07
2023-04-02T02:46:51.108Z,82.89
2023-04-02T02:49:23.366Z,81.71
2023-04-02T02:52:01.712Z,82.04
2023-04-02T02:54:40.695Z,82.24
2023-04-02T02:57:13.764Z,81.84
2023-04-02T02:59:44.351Z,81.88
2023-04-02T03:02:17.235Z,81.94
2023-04-02T03:04:50.818Z,82.12
2023-04-02T03:07:22.130Z,81.61
2023-04-02T03:10:00.185Z,81.51
2023-04-02T03:12:42.219Z,82.30
2023-04-02T03:15:20.436Z,82.08
2023-04-02T03:17:56.497Z,82.63
2023-04-02T03:20:34.944Z,82.38
2023-04-02T03:23:11.590Z,82.29
2023-04-02T03:25:44.974Z,82.19
2023-04-02T03:28:19.563Z,82.42
2023-04-02T03:30:52.998Z,82.62
2023-04-02T03:33:28.798Z,81.57
2023-04-02T03:36:04.691Z,81.66
2023-04-02T03:38:43.624Z,81.88
2023-04-02T03:41:19.709Z,81.14
2023-04-02T03:43:53.969Z,80.84
2023-04-02T03:46:30.710Z,81.25
2023-04-02T03:49:07.463Z,80.70
2023-04-02T03:51:45.054Z,81.07
2023-04-02T03:54:17.197Z,81.32
2023-04-02T03:56:47.792Z,81.33
2023-04-02T03:59:32.018Z,81.39
2023-04-02T04:02:08.935Z,81.16
2023-04-02T04:04:43.822Z,81.07
2023-04-02T04:07:21.143Z,80.85
2023-04-02T04:09:54.532Z,81.00
2023-04-02T04:12:33.941Z,81.58
2023-04-02T04:15:10.886Z,81.29
2023-04-02T04:17:56.103Z,81.44
2023-04-02T04:20:37.727Z,81.16
2023-04-02T04:23:13.088Z,81.38
2023-04-02T04:25:43.253Z,81.17
2023-04-02T04:28:26.686Z,81.03
2023-04-02T04:31:00.135Z,81.30
2023-04-02T04:33:39.934Z,81.95
2023-04-02T04:36:28.842Z,81.72
2023-04-02T04:39:14.688Z,80.68
2023-04-02T04:41:50.105Z,81.20
2023-04-02T04:44:24.970Z,81.14
2023-04-02T04:47:03.725Z,80.67
2023-04-02T04:49:37.053Z,80.43
2023-04-02T04:52:15.389Z,80.33
2023-04-02T04:54:48.344Z,80.71
2023-04-02T04:57:31.071Z,80.22
2023-04-02T05:00:08.070Z,80.58
2023-04-02T05:02:47.696Z,80.42
2023-04-02T05:05:21.232Z,80.69
2023-04-02T05:08:01.384Z,80.86
2023-04-02T05:10:39.847Z,80.30
2023-04-02T05:13:16.308Z,80.57
2023-04-02T05:15:51.495Z,79.93
2023-04-02T05:18:28.509Z,80.95
2023-04-02T05:21:05.599Z,81.13
2023-04-02T05:23:46.648Z,80.95
2023-04-02T05:26:20.352Z,81.64
2023-04-02T05:28:58.440Z,81.04
2023-04-02T05:31:32.982Z,81.31
2023-04-02T05:34:03.419Z,81.37
2023-04-02T05:36:33.613Z,81.05
2023-04-02T05:39:11.057Z,81.72
2023-04-02T05:41:49.852Z,81.76
2023-04-02T05:44:32.189Z,81.76
2023-04-02T05:47:06.068Z,82.18
2023-04-02T05:49:42.951Z,82.24
2023-04-02T05:52:17.320Z,81.82
2023-04-02T05:54:54.420Z,82.86
2023-04-02T06:00:17.477Z,81.99
2023-04-02T06:02:54.996Z,82.84
2023-04-02T06:05:27.598Z,82.12
2023-04-02T06:08:02.517Z,81.89
2023-04-02T06:10:38.309Z,82.66
2023-04-02T06:13:09.796Z,82.54
2023-04-02T06:15:42.903Z,82.46
2023-04-02T06:18:21.254Z,82.43
2023-04-02T06:20:51.889Z,81.88
2023-04-02T06:23:25.336Z,82.23
2023-04-02T06:26:02.911Z,82.06
2023-04-02T06:28:39.235Z,81.42
2023-04-02T06:31:13.285Z,81.96
2023-04-02T06:33:42.324Z,81.06
2023-04-02T06:36:12.603Z,81.44
2023-04-02T06:38:44.165Z,81.44
2023-04-02T06:41:21.962Z,81.42
2023-04-02T06:44:06.068Z,82.43
2023-04-02T06:46:58.608Z,82.31
2023-04-02T06:49:35.497Z,82.24
2023-04-02T06:52:14.949Z,81.77
2023-04-02T06:54:44.038Z,81.40
2023-04-02T06:57:15.830Z,81.73
2023-04-02T06:59:47.372Z,81.83
2023-04-02T07:02:33.567Z,81.33
2023-04-02T07:05:09.271Z,81.29
2023-04-02T07:07:41.699Z,81.39
2023-04-02T07:10:13.785Z,80.75
2023-04-02T07:12:44.159Z,80.95
2023-04-02T07:15:15.915Z,81.01
2023-04-02T07:17:45.504Z,81.19
2023-04-02T07:20:28.108Z,80.93
2023-04-02T07:22:59.059Z,81.29
2023-04-02T07:25:29.153Z,80.51
2023-04-02T07:27:59.584Z,80.39
2023-04-02T07:30:28.551Z,80.12
2023-04-02T07:32:57.776Z,80.24
2023-04-02T07:35:26.922Z,79.97
2023-04-02T07:37:56.276Z,80.28
2023-04-02T07:40:25.376Z,79.86
2023-04-02T07:42:54.542Z,79.59
2023-04-02T07:45:24.861Z,79.93
2023-04-02T07:47:54.110Z,79.44
2023-04-02T07:50:23.496Z,79.27
2023-04-02T07:52:52.717Z,79.26
2023-04-02T07:55:21.649Z,79.46
2023-04-02T07:57:53.822Z,79.12
2023-04-02T08:00:25.195Z,79.18
2023-04-02T08:02:54.696Z,78.68
2023-04-02T08:05:24.228Z,78.58
2023-04-02T08:07:57.893Z,78.79
2023-04-02T08:10:26.940Z,79.12
2023-04-02T08:12:56.159Z,78.37
2023-04-02T08:15:26.514Z,79.19
2023-04-02T08:17:55.836Z,78.95
2023-04-02T08:20:25.843Z,78.13
2023-04-02T08:22:55.090Z,77.85
2023-04-02T08:25:24.184Z,76.94
2023-04-02T08:27:53.430Z,77.24
2023-04-02T08:30:22.737Z,76.90
2023-04-02T08:32:53.378Z,76.96
2023-04-02T08:35:23.604Z,77.46
2023-04-02T08:37:52.830Z,77.41
2023-04-02T08:40:26.535Z,76.64
2023-04-02T08:43:31.424Z,76.89
2023-04-02T08:46:10.806Z,75.94
2023-04-02T08:48:45.204Z,76.68
2023-04-02T08:51:24.120Z,76.85
2023-04-02T08:53:57.386Z,77.37
2023-04-02T08:56:31.786Z,76.93
2023-04-02T08:59:08.693Z,76.98
2023-04-02T09:01:48.346Z,76.49
2023-04-02T09:04:22.846Z,76.33
2023-04-02T09:06:54.668Z,75.50
2023-04-02T09:09:25.730Z,74.47
2023-04-02T09:12:00.739Z,74.32
2023-04-02T09:14:42.635Z,74.76
2023-04-02T09:17:19.089Z,74.12
2023-04-02T09:19:57.095Z,74.45
2023-04-02T09:22:28.264Z,73.91
2023-04-02T09:24:58.950Z,73.68
2023-04-02T09:27:28.834Z,73.19
2023-04-02T09:30:03.965Z,72.28
2023-04-02T09:32:45.808Z,73.31
2023-04-02T09:35:39.590Z,73.61
2023-04-02T09:38:21.149Z,71.76
2023-04-02T09:40:59.553Z,70.50
2023-04-02T09:43:31.089Z,70.68
2023-04-02T09:46:02.833Z,70.93
2023-04-02T09:48:34.617Z,71.32
2023-04-02T09:51:17.503Z,71.57
2023-04-02T09:53:49.291Z,69.86
2023-04-02T09:56:21.875Z,69.18
2023-04-02T09:59:05.266Z,69.64
2023-04-02T10:01:36.231Z,67.78
2023-04-02T10:04:27.296Z,66.89
2023-04-02T10:06:59.137Z,65.77
2023-04-02T10:09:32.425Z,66.38
2023-04-02T10:12:03.955Z,65.15
2023-04-02T10:14:36.757Z,65.47
2023-04-02T10:17:15.487Z,64.68
2023-04-02T10:19:48.844Z,64.25
2023-04-02T10:22:22.093Z,63.80
2023-04-02T10:24:52.199Z,62.88
2023-04-02T10:27:32.048Z,62.84
2023-04-02T10:30:17.009Z,62.29
2023-04-02T10:32:51.832Z,61.38
2023-04-02T10:35:34.425Z,60.55
2023-04-02T10:38:41.869Z,60.15
2023-04-02T10:41:24.462Z,59.04
2023-04-02T10:44:20.797Z,58.74
2023-04-02T10:47:01.300Z,59.44
2023-04-02T10:49:38.552Z,57.34
2023-04-02T10:52:14.402Z,56.65
2023-04-02T10:54:49.806Z,57.96
2023-04-02T10:57:30.640Z,56.22
2023-04-02T11:00:08.158Z,56.69
2023-04-02T11:02:45.286Z,55.97
2023-04-02T11:05:20.956Z,56.05
2023-04-02T11:08:00.804Z,55.09
2023-04-02T11:10:36.292Z,55.18
2023-04-02T11:13:14.721Z,55.64
2023-04-02T11:15:44.883Z,54.88
2023-04-02T11:18:27.511Z,54.83
2023-04-02T11:21:05.673Z,53.94
2023-04-02T11:23:58.462Z,54.25
2023-04-02T11:26:41.143Z,54.21
2023-04-02T11:29:22.442Z,54.20
2023-04-02T11:32:13.008Z,54.49
2023-04-02T11:35:30.286Z,53.30
2023-04-02T11:38:03.933Z,53.04
2023-04-02T11:40:49.650Z,52.81
2023-04-02T11:43:52.629Z,53.58
2023-04-02T11:46:46.645Z,51.29
2023-04-02T11:49:36.052Z,52.45
2023-04-02T11:52:12.427Z,52.05
2023-04-02T11:54:43.724Z,51.40
2023-04-02T11:57:28.321Z,51.61
2023-04-02T12:00:18.199Z,51.24
2023-04-02T12:03:03.563Z,52.05
2023-04-02T12:05:43.138Z,51.17
2023-04-02T12:08:27.563Z,51.57
2023-04-02T12:10:59.533Z,51.55
2023-04-02T12:13:58.581Z,51.16
2023-04-02T12:16:34.113Z,51.44
2023-04-02T12:19:03.606Z,49.95
2023-04-02T12:21:33.144Z,49.78
2023-04-02T12:24:04.471Z,50.21
2023-04-02T12:26:42.361Z,49.95
2023-04-02T12:29:23.179Z,49.86
2023-04-02T12:31:55.444Z,49.81
2023-04-02T12:34:27.007Z,50.26
2023-04-02T12:36:59.631Z,49.55
2023-04-02T12:39:28.844Z,49.43
2023-04-02T12:41:58.573Z,48.55
2023-04-02T12:44:29.581Z,49.92
2023-04-02T12:47:01.053Z,49.53
2023-04-02T12:49:37.013Z,50.32
2023-04-02T12:52:10.227Z,50.95
2023-04-02T12:54:45.726Z,51.92
2023-04-02T12:57:36.267Z,50.73
2023-04-02T13:00:37.582Z,49.67
2023-04-02T13:03:23.598Z,50.49
2023-04-02T13:05:56.293Z,51.42
2023-04-02T13:08:29.585Z,50.43
2023-04-02T13:11:00.762Z,48.71
2023-04-02T13:13:34.527Z,49.29
2023-04-02T13:16:08.572Z,49.71
2023-04-02T13:18:39.385Z,49.79
2023-04-02T13:21:24.244Z,49.71
2023-04-02T13:23:53.645Z,49.29
2023-04-02T13:26:25.931Z,49.26
2023-04-02T13:29:00.683Z,49.52
2023-04-02T13:31:32.723Z,49.49
2023-04-02T13:34:02.327Z,49.80
2023-04-02T13:36:31.581Z,50.19
2023-04-02T13:39:01.172Z,49.96
2023-04-02T13:41:32.318Z,50.22
2023-04-02T13:44:03.692Z,50.00
2023-04-02T13:46:35.873Z,49.42
2023-04-02T13:49:05.499Z,48.73
2023-04-02T13:51:39.309Z,49.16
2023-04-02T13:54:14.042Z,49.01
2023-04-02T13:56:43.138Z,49.13
2023-04-02T13:59:12.728Z,48.41
2023-04-02T14:01:44.894Z,48.13
2023-04-02T14:04:19.623Z,49.23
2023-04-02T14:07:21.960Z,49.93
2023-04-02T14:10:09.483Z,49.57
2023-04-02T14:12:50.064Z,50.06
2023-04-02T14:15:37.803Z,50.40
2023-04-02T14:18:26.290Z,50.63
2023-04-02T14:21:07.304Z,50.10
2023-04-02T14:23:57.051Z,50.13
2023-04-02T14:26:39.589Z,50.80
2023-04-02T14:29:17.488Z,50.98
2023-04-02T14:31:53.092Z,51.86
2023-04-02T14:34:29.775Z,51.13
2023-04-02T14:37:13.592Z,51.12
2023-04-02T14:39:52.736Z,50.88
2023-04-02T14:42:29.888Z,49.92
2023-04-02T14:45:03.401Z,50.60
2023-04-02T14:47:38.451Z,50.84
2023-04-02T14:50:14.814Z,51.07
2023-04-02T14:52:48.725Z,50.81
2023-04-02T14:55:27.468Z,51.44
2023-04-02T14:57:58.590Z,51.68
2023-04-02T15:00:34.402Z,52.75
2023-04-02T15:03:11.435Z,53.02
2023-04-02T15:05:47.735Z,53.06
2023-04-02T15:08:21.788Z,52.40
2023-04-02T15:11:03.393Z,51.89
2023-04-02T15:13:39.362Z,52.38
2023-04-02T15:16:14.552Z,52.78
2023-04-02T15:18:44.094Z,51.91
2023-04-02T15:24:34.312Z,55.27
2023-04-02T15:27:24.569Z,56.40
2023-04-02T15:30:01.976Z,55.66
2023-04-02T15:32:39.139Z,55.92
2023-04-02T15:35:22.969Z,56.26
2023-04-02T15:38:00.093Z,55.67
2023-04-02T15:40:49.398Z,55.26
2023-04-02T15:43:23.477Z,56.12
2023-04-02T15:46:15.647Z,57.05
2023-04-02T15:49:07.565Z,57.18
2023-04-02T15:51:54.764Z,58.86
2023-04-02T15:54:43.900Z,58.56
2023-04-02T15:57:24.883Z,58.43
2023-04-02T16:00:14.860Z,58.71
2023-04-02T16:02:54.919Z,58.72
2023-04-02T16:05:37.633Z,58.28
2023-04-02T16:08:45.657Z,59.56
2023-04-02T16:11:17.398Z,60.69
2023-04-02T16:13:47.493Z,60.50
2023-04-02T16:16:22.134Z,61.21
2023-04-02T16:18:58.240Z,61.52
2023-04-02T16:21:33.370Z,60.41
2023-04-02T16:24:03.010Z,60.89
2023-04-02T16:26:42.924Z,61.48
2023-04-02T16:29:20.289Z,61.45
2023-04-02T16:31:57.215Z,61.84
2023-04-02T16:34:37.982Z,62.51
2023-04-02T16:37:16.581Z,61.89
2023-04-02T16:39:54.165Z,62.61
2023-04-02T16:42:38.193Z,62.60
2023-04-02T16:45:25.755Z,62.76
2023-04-02T16:48:10.737Z,63.12
2023-04-02T16:50:50.626Z,63.21
2023-04-02T16:53:32.428Z,63.52
2023-04-02T16:56:22.774Z,63.34
2023-04-02T16:59:04.316Z,64.21
2023-04-02T17:01:42.361Z,64.05
2023-04-02T17:04:39.789Z,63.97
2023-04-02T17:07:21.117Z,63.91
2023-04-02T17:09:52.716Z,63.75
2023-04-02T17:12:24.174Z,64.28
2023-04-02T17:14:58.213Z,64.30
2023-04-02T17:17:27.800Z,64.51
2023-04-02T17:20:01.426Z,64.71
2023-04-02T17:22:32.768Z,63.99
2023-04-02T17:25:04.855Z,64.48
2023-04-02T17:27:37.936Z,65.10
2023-04-02T17:30:17.048Z,64.69
2023-04-02T17:32:46.830Z,64.72
2023-04-02T17:35:34.482Z,64.46
2023-04-02T17:38:14.394Z,64.49
2023-04-02T17:40:54.783Z,64.45
2023-04-02T17:43:37.843Z,64.11
2023-04-02T17:46:18.190Z,64.53
2023-04-02T17:48:49.019Z,64.38
2023-04-02T17:51:21.783Z,64.88
2023-04-02T17:54:03.638Z,64.23
2023-04-02T17:56:52.806Z,64.27
2023-04-02T17:59:41.691Z,63.82
2023-04-02T18:02:42.946Z,64.64
2023-04-02T18:05:26.915Z,64.45
2023-04-02T18:08:07.220Z,64.91
2023-04-02T18:10:46.008Z,65.14
2023-04-02T18:13:24.083Z,64.84
2023-04-02T18:16:37.404Z,64.73
2023-04-02T18:19:17.272Z,64.09
2023-04-02T18:21:54.523Z,64.25
2023-04-02T18:24:34.470Z,63.81
2023-04-02T18:27:20.767Z,63.11
2023-04-02T18:29:56.500Z,63.17
2023-04-02T18:32:41.727Z,63.71
2023-04-02T18:35:22.149Z,64.00
2023-04-02T18:38:08.060Z,64.22
2023-04-02T18:40:44.620Z,64.09
2023-04-02T18:43:27.751Z,63.50
2023-04-02T18:46:05.191Z,63.21
2023-04-02T18:48:44.149Z,64.76
2023-04-02T18:51:19.810Z,64.46
2023-04-02T18:53:51.322Z,65.73
2023-04-02T18:56:22.180Z,65.43
2023-04-02T18:58:58.122Z,65.41
2023-04-02T19:01:33.830Z,65.05
2023-04-02T19:04:07.591Z,64.50
2023-04-02T19:06:41.996Z,63.76
2023-04-02T19:09:18.382Z,64.19
2023-04-02T19:11:48.014Z,64.41
2023-04-02T19:14:19.617Z,64.93
2023-04-02T19:17:03.514Z,65.36
2023-04-02T19:19:41.253Z,66.07
2023-04-02T19:22:18.159Z,66.36
2023-04-02T19:25:25.446Z,66.64
2023-04-02T19:28:13.479Z,66.19
2023-04-02T19:31:11.056Z,66.48
2023-04-02T19:33:55.108Z,67.01
2023-04-02T19:36:41.692Z,67.06
2023-04-02T19:39:39.857Z,66.97
2023-04-02T19:42:19.543Z,67.17
2023-04-02T19:44:51.401Z,66.61
2023-04-02T19:47:22.064Z,66.99
2023-04-02T19:49:51.008Z,67.08
2023-04-02T19:52:21.272Z,66.96
2023-04-02T19:54:51.989Z,67.60
2023-04-02T19:57:21.712Z,66.99
2023-04-02T19:59:50.867Z,67.64
2023-04-02T20:02:20.295Z,67.47
2023-04-02T20:04:49.428Z,67.55
2023-04-02T20:07:18.786Z,67.96
2023-04-02T20:09:47.878Z,67.47
2023-04-02T20:12:18.678Z,67.63
2023-04-02T20:14:47.779Z,68.67
2023-04-02T20:17:17.139Z,69.37
2023-04-02T20:19:46.355Z,69.72
2023-04-02T20:22:15.693Z,68.88
2023-04-02T20:24:44.819Z,69.18
2023-04-02T20:27:15.343Z,69.53
2023-04-02T20:29:46.694Z,68.62
2023-04-02T20:32:17.621Z,69.08
2023-04-02T20:34:47.114Z,69.32
2023-04-02T20:37:16.623Z,69.18
2023-04-02T20:39:45.692Z,68.82
2023-04-02T20:42:15.223Z,69.92
2023-04-02T20:44:46.164Z,68.78
2023-04-02T20:47:15.697Z,69.10
2023-04-02T20:49:44.821Z,69.32
2023-04-02T20:52:14.236Z,69.22
2023-04-02T20:54:43.328Z,68.90
2023-04-02T20:57:13.790Z,70.55
2023-04-02T20:59:43.248Z,70.58
2023-04-02T21:02:14.308Z,70.71
2023-04-02T21:04:43.490Z,71.02
2023-04-02T21:07:12.906Z,70.97
2023-04-02T21:09:42.104Z,70.17
2023-04-02T21:12:12.268Z,70.68
2023-04-02T21:14:41.368Z,70.25
2023-04-02T21:17:11.258Z,70.77
2023-04-02T21:19:41.783Z,70.44
2023-04-02T21:22:11.235Z,70.12
2023-04-02T21:24:40.342Z,71.28
2023-04-02T21:27:09.764Z,71.22
2023-04-02T21:29:39.001Z,71.48
2023-04-02T21:32:20.266Z,70.87
2023-04-02T21:34:51.712Z,70.55
2023-04-02T21:37:21.142Z,70.58
2023-04-02T21:39:50.178Z,70.51
2023-04-02T21:42:19.650Z,70.68
2023-04-02T21:44:48.686Z,70.12
2023-04-02T21:47:18.192Z,70.35
2023-04-02T21:49:47.380Z,70.06
2023-04-02T21:52:18.118Z,69.26
2023-04-02T21:54:47.236Z,69.82
2023-04-02T21:57:17.908Z,70.07
2023-04-02T21:59:48.238Z,70.05
2023-04-02T22:02:17.608Z,70.29
2023-04-02T22:04:46.679Z,70.32
2023-04-02T22:07:17.655Z,70.66
2023-04-02T22:09:46.750Z,70.42
2023-04-02T22:12:16.115Z,70.32
2023-04-02T22:14:45.284Z,70.31
2023-04-02T22:17:14.631Z,72.06
2023-04-02T22:19:43.695Z,71.50
2023-04-02T22:22:13.084Z,73.24
2023-04-02T22:24:43.558Z,72.36
2023-04-02T22:27:13.017Z,71.91
2023-04-02T22:29:42.074Z,72.06
2023-04-02T22:32:11.511Z,72.83
2023-04-02T22:34:45.719Z,73.64
2023-04-02T22:37:15.209Z,72.81
2023-04-02T22:39:45.669Z,72.44
2023-04-02T22:42:15.063Z,72.71
2023-04-02T22:44:44.092Z,73.95
2023-04-02T22:47:13.538Z,73.78
2023-04-02T22:49:42.584Z,73.94
2023-04-02T22:52:11.992Z,73.18
2023-04-02T22:54:41.213Z,73.44
2023-04-02T22:57:12.930Z,73.01
2023-04-02T22:59:42.152Z,72.73
2023-04-02T23:02:11.491Z,72.43
2023-04-02T23:04:40.640Z,73.01
2023-04-02T23:07:10.035Z,73.02
2023-04-02T23:09:39.160Z,73.24
2023-04-02T23:12:08.566Z,73.32
2023-04-02T23:14:39.070Z,72.94
2023-04-02T23:17:08.516Z,73.62
2023-04-02T23:19:37.564Z,72.85
2023-04-02T23:22:06.973Z,72.67
2023-04-02T23:24:36.122Z,71.94
2023-04-02T23:27:05.657Z,72.00
2023-04-02T23:29:34.809Z,71.75
2023-04-02T23:32:05.947Z,71.93
2023-04-02T23:34:35.080Z,72.22
2023-04-02T23:37:04.458Z,72.25
2023-04-02T23:39:33.543Z,72.14
2023-04-02T23:42:03.225Z,71.18
2023-04-02T23:44:32.444Z,71.81
2023-04-02T23:47:02.400Z,71.15
2023-04-02T23:49:35.564Z,71.15
2023-04-02T23:52:05.092Z,71.01
2023-04-02T23:54:34.143Z,70.36
2023-04-02T23:57:03.548Z,70.84
2023-04-02T23:59:32.662Z,69.77
